Coronel Enrique Soto Cano Air Base
MHSC : now visible

Airfield :











YOU CAN JOIN US ON...

 
LOGIN :

Register | Disclaimer

   EN    FR    IT 

 









Legend :    VFR   Marginal VFR   IFR   Intensive IFR   Very Intensive IFR
Visi :
Ceiling :
>= 8 km
>= 3000ft
5 to 8 km
1000 to 3000 ft
1500m to 5 km
500 to 1000 ft
800 to 1500m
200 to 500 ft
< 800m
< 200 ft
Symbols :   Thunderstorms  Fog  Heavy snow  Heavy precipitations  Wind > 20 kt






- Airport Elevation : 2061 ft
- IATA code : XPL


MHSC - Coronel Enrique Soto Cano Air Base

CURRENT METAR :
  • 031758Z AUTO 24005KT 9999 FEW110 FEW130 SCT150 BKN180 BKN200 33/15 A2991 RMK AO2 SLP079 T03300145 10332 20212 58024 $

EXPIRED METARs :
  • 031658Z AUTO 18003KT 9999 FEW120 FEW180 FEW200 31/15 A2995 RMK AO2 SLP095 T03100154 $
  • 031558Z AUTO 26003KT 9999 CLR 30/19 A2998 RMK AO2 SLP105 T02950189 $

TAF TAF MHSC
Valid from the 03 at 13:00 until the 04 at 19:00 UTC


0313/0419 VRB06KT 9999 BKN025 QNH2995INS
BECMG 0315/0316 05012KT 9999 FEW050 SCT080 QNH2982INS
TEMPO 0322/0401 01010G20KT
BECMG 0404/0405 VRB04KT 9000 -SHRA BKN040 QNH2991INS
BECMG 0411/0412 17006KT 9999 NSW SCT020 BKN050 QNH2996INS TX35/0321Z TN17/0411Z



MET'MAP, your aeronautical weather chart ! - Copyright ORBIFLY December 2007 - Disclaimer

ORBIFLY MET'MAP TEAM :

Programming & Development : Alexandra Zaïnal
Concept & original design : Baudouin d'Aumeries
Assistance for programming : Marc-Olivier Méhu
Technical & hardware support : Manuel Goepfert

Contact : metmap@orbifly.com




SOURCES & CREDITS :

   NOAA       Earth
Advisory